sensor_id;sensor_type;location;lat;lon;timestamp;temperature;humidity
57108;DHT22;42987;52.916;6.542;2023-12-14T00:02:12;5.30;99.90
57108;DHT22;42987;52.916;6.542;2023-12-14T00:04:38;5.30;99.90
57108;DHT22;42987;52.916;6.542;2023-12-14T00:07:03;5.30;99.90
57108;DHT22;42987;52.916;6.542;2023-12-14T00:09:29;5.30;99.90
57108;DHT22;42987;52.916;6.542;2023-12-14T00:11:55;5.20;99.90
57108;DHT22;42987;52.916;6.542;2023-12-14T00:14:21;5.20;99.90
57108;DHT22;42987;52.916;6.542;2023-12-14T00:16:47;5.20;99.90
57108;DHT22;42987;52.916;6.542;2023-12-14T00:19:13;5.20;99.90
57108;DHT22;42987;52.916;6.542;2023-12-14T00:21:38;5.20;99.90
57108;DHT22;42987;52.916;6.542;2023-12-14T00:24:04;5.20;99.90
57108;DHT22;42987;52.916;6.542;2023-12-14T00:26:30;5.20;99.90
57108;DHT22;42987;52.916;6.542;2023-12-14T00:28:56;5.20;99.90
57108;DHT22;42987;52.916;6.542;2023-12-14T00:31:22;5.20;99.90
57108;DHT22;42987;52.916;6.542;2023-12-14T00:33:47;5.20;99.90
57108;DHT22;42987;52.916;6.542;2023-12-14T00:36:19;5.20;99.90
57108;DHT22;42987;52.916;6.542;2023-12-14T00:38:45;5.10;99.90
57108;DHT22;42987;52.916;6.542;2023-12-14T00:41:11;5.10;99.90
57108;DHT22;42987;52.916;6.542;2023-12-14T00:43:37;5.10;99.90
57108;DHT22;42987;52.916;6.542;2023-12-14T00:46:04;5.10;99.90
57108;DHT22;42987;52.916;6.542;2023-12-14T00:48:30;5.10;99.90
57108;DHT22;42987;52.916;6.542;2023-12-14T00:50:56;5.10;99.90
57108;DHT22;42987;52.916;6.542;2023-12-14T00:53:22;5.00;99.90
57108;DHT22;42987;52.916;6.542;2023-12-14T00:55:48;5.00;99.90
57108;DHT22;42987;52.916;6.542;2023-12-14T00:58:14;5.00;99.90
57108;DHT22;42987;52.916;6.542;2023-12-14T01:00:40;5.00;99.90
57108;DHT22;42987;52.916;6.542;2023-12-14T01:03:06;5.00;99.90
57108;DHT22;42987;52.916;6.542;2023-12-14T01:05:32;5.00;99.90
57108;DHT22;42987;52.916;6.542;2023-12-14T01:07:58;5.10;99.90
57108;DHT22;42987;52.916;6.542;2023-12-14T01:10:23;4.90;99.90
57108;DHT22;42987;52.916;6.542;2023-12-14T01:12:49;5.00;99.90
57108;DHT22;42987;52.916;6.542;2023-12-14T01:15:18;5.00;99.90
57108;DHT22;42987;52.916;6.542;2023-12-14T01:17:44;5.00;99.90
57108;DHT22;42987;52.916;6.542;2023-12-14T01:20:10;5.00;99.90
57108;DHT22;42987;52.916;6.542;2023-12-14T01:22:36;4.90;99.90
57108;DHT22;42987;52.916;6.542;2023-12-14T01:25:02;5.00;99.90
57108;DHT22;42987;52.916;6.542;2023-12-14T01:27:28;5.00;99.90
57108;DHT22;42987;52.916;6.542;2023-12-14T01:29:54;4.90;99.90
57108;DHT22;42987;52.916;6.542;2023-12-14T01:32:20;4.90;99.90
57108;DHT22;42987;52.916;6.542;2023-12-14T01:34:46;4.90;99.90
57108;DHT22;42987;52.916;6.542;2023-12-14T01:37:11;4.90;99.90
57108;DHT22;42987;52.916;6.542;2023-12-14T01:39:37;4.90;99.90
57108;DHT22;42987;52.916;6.542;2023-12-14T01:42:03;4.90;99.90
57108;DHT22;42987;52.916;6.542;2023-12-14T01:44:29;4.90;99.90
57108;DHT22;42987;52.916;6.542;2023-12-14T01:46:54;4.80;99.90
57108;DHT22;42987;52.916;6.542;2023-12-14T01:49:20;4.80;99.90
57108;DHT22;42987;52.916;6.542;2023-12-14T01:51:47;4.80;99.90
57108;DHT22;42987;52.916;6.542;2023-12-14T01:54:12;4.80;99.90
57108;DHT22;42987;52.916;6.542;2023-12-14T01:56:38;4.80;99.90
57108;DHT22;42987;52.916;6.542;2023-12-14T01:59:05;4.80;99.90
57108;DHT22;42987;52.916;6.542;2023-12-14T02:04:00;4.80;99.90
57108;DHT22;42987;52.916;6.542;2023-12-14T02:06:27;4.80;99.90
57108;DHT22;42987;52.916;6.542;2023-12-14T02:08:52;4.80;99.90
57108;DHT22;42987;52.916;6.542;2023-12-14T02:11:18;4.70;99.90
57108;DHT22;42987;52.916;6.542;2023-12-14T02:13:44;4.70;99.90
57108;DHT22;42987;52.916;6.542;2023-12-14T02:16:10;4.70;99.90
57108;DHT22;42987;52.916;6.542;2023-12-14T02:18:36;4.70;99.90
57108;DHT22;42987;52.916;6.542;2023-12-14T02:21:02;4.70;99.90
57108;DHT22;42987;52.916;6.542;2023-12-14T02:23:28;4.70;99.90
57108;DHT22;42987;52.916;6.542;2023-12-14T02:25:54;4.70;99.90
57108;DHT22;42987;52.916;6.542;2023-12-14T02:28:19;4.70;99.90
57108;DHT22;42987;52.916;6.542;2023-12-14T02:30:46;4.70;99.90
57108;DHT22;42987;52.916;6.542;2023-12-14T02:33:12;4.70;99.90
57108;DHT22;42987;52.916;6.542;2023-12-14T02:35:37;4.70;99.90
57108;DHT22;42987;52.916;6.542;2023-12-14T02:38:03;4.70;99.90
57108;DHT22;42987;52.916;6.542;2023-12-14T02:40:29;4.70;99.90
57108;DHT22;42987;52.916;6.542;2023-12-14T02:42:54;4.70;99.90
57108;DHT22;42987;52.916;6.542;2023-12-14T02:45:20;4.70;99.90
57108;DHT22;42987;52.916;6.542;2023-12-14T02:47:46;4.70;99.90
57108;DHT22;42987;52.916;6.542;2023-12-14T02:50:14;4.70;99.90
57108;DHT22;42987;52.916;6.542;2023-12-14T02:52:39;4.70;99.90
57108;DHT22;42987;52.916;6.542;2023-12-14T02:55:05;4.80;99.90
57108;DHT22;42987;52.916;6.542;2023-12-14T02:57:31;4.70;99.90
57108;DHT22;42987;52.916;6.542;2023-12-14T02:59:57;4.70;99.90
57108;DHT22;42987;52.916;6.542;2023-12-14T03:02:22;4.80;99.90
57108;DHT22;42987;52.916;6.542;2023-12-14T03:04:48;4.70;99.90
57108;DHT22;42987;52.916;6.542;2023-12-14T03:07:14;4.70;99.90
57108;DHT22;42987;52.916;6.542;2023-12-14T03:09:40;4.70;99.90
57108;DHT22;42987;52.916;6.542;2023-12-14T03:12:10;4.70;99.90
57108;DHT22;42987;52.916;6.542;2023-12-14T03:14:36;4.70;99.90
57108;DHT22;42987;52.916;6.542;2023-12-14T03:17:01;4.70;99.90
57108;DHT22;42987;52.916;6.542;2023-12-14T03:19:28;4.70;99.90
57108;DHT22;42987;52.916;6.542;2023-12-14T03:21:54;4.70;99.90
57108;DHT22;42987;52.916;6.542;2023-12-14T03:24:23;4.70;99.90
57108;DHT22;42987;52.916;6.542;2023-12-14T03:26:49;4.70;99.90
57108;DHT22;42987;52.916;6.542;2023-12-14T03:29:14;4.70;99.90
57108;DHT22;42987;52.916;6.542;2023-12-14T03:31:40;4.80;99.90
57108;DHT22;42987;52.916;6.542;2023-12-14T03:34:06;4.70;99.90
57108;DHT22;42987;52.916;6.542;2023-12-14T03:36:31;4.70;99.90
57108;DHT22;42987;52.916;6.542;2023-12-14T03:38:57;4.70;99.90
57108;DHT22;42987;52.916;6.542;2023-12-14T03:41:23;4.70;99.90
57108;DHT22;42987;52.916;6.542;2023-12-14T03:43:49;4.70;99.90
57108;DHT22;42987;52.916;6.542;2023-12-14T03:46:15;4.80;99.90
57108;DHT22;42987;52.916;6.542;2023-12-14T03:48:40;4.70;99.90
57108;DHT22;42987;52.916;6.542;2023-12-14T03:51:06;4.80;99.90
57108;DHT22;42987;52.916;6.542;2023-12-14T03:53:32;4.80;99.90
57108;DHT22;42987;52.916;6.542;2023-12-14T03:55:58;4.70;99.90
57108;DHT22;42987;52.916;6.542;2023-12-14T03:58:24;4.70;99.90
57108;DHT22;42987;52.916;6.542;2023-12-14T04:00:49;4.80;99.90
57108;DHT22;42987;52.916;6.542;2023-12-14T04:03:15;4.70;99.90
57108;DHT22;42987;52.916;6.542;2023-12-14T04:05:41;4.70;99.90
57108;DHT22;42987;52.916;6.542;2023-12-14T04:08:07;4.70;99.90
57108;DHT22;42987;52.916;6.542;2023-12-14T04:10:32;4.70;99.90
57108;DHT22;42987;52.916;6.542;2023-12-14T04:12:58;4.70;99.90
57108;DHT22;42987;52.916;6.542;2023-12-14T04:15:24;4.70;99.90
57108;DHT22;42987;52.916;6.542;2023-12-14T04:17:50;4.70;99.90
57108;DHT22;42987;52.916;6.542;2023-12-14T04:20:15;4.70;99.90
57108;DHT22;42987;52.916;6.542;2023-12-14T04:22:44;4.70;99.90
57108;DHT22;42987;52.916;6.542;2023-12-14T04:25:10;4.70;99.90
57108;DHT22;42987;52.916;6.542;2023-12-14T04:27:36;4.70;99.90
57108;DHT22;42987;52.916;6.542;2023-12-14T04:30:03;4.70;99.90
57108;DHT22;42987;52.916;6.542;2023-12-14T04:32:30;4.70;99.90
57108;DHT22;42987;52.916;6.542;2023-12-14T04:34:56;4.70;99.90
57108;DHT22;42987;52.916;6.542;2023-12-14T04:37:21;4.80;99.90
57108;DHT22;42987;52.916;6.542;2023-12-14T04:39:47;4.60;99.90
57108;DHT22;42987;52.916;6.542;2023-12-14T04:42:13;4.70;99.90
57108;DHT22;42987;52.916;6.542;2023-12-14T04:44:39;4.70;99.90
57108;DHT22;42987;52.916;6.542;2023-12-14T04:47:05;4.70;99.90
57108;DHT22;42987;52.916;6.542;2023-12-14T04:49:30;4.70;99.90
57108;DHT22;42987;52.916;6.542;2023-12-14T04:51:56;4.70;99.90
57108;DHT22;42987;52.916;6.542;2023-12-14T04:54:22;4.70;99.90
57108;DHT22;42987;52.916;6.542;2023-12-14T04:56:48;4.70;99.90
57108;DHT22;42987;52.916;6.542;2023-12-14T04:59:13;4.70;99.90
57108;DHT22;42987;52.916;6.542;2023-12-14T05:01:39;4.70;99.90
57108;DHT22;42987;52.916;6.542;2023-12-14T05:04:05;4.70;99.90
57108;DHT22;42987;52.916;6.542;2023-12-14T05:06:31;4.60;99.90
57108;DHT22;42987;52.916;6.542;2023-12-14T05:08:58;4.70;99.90
57108;DHT22;42987;52.916;6.542;2023-12-14T05:11:24;4.70;99.90
57108;DHT22;42987;52.916;6.542;2023-12-14T05:13:50;4.70;99.90
57108;DHT22;42987;52.916;6.542;2023-12-14T05:16:16;4.70;99.90
57108;DHT22;42987;52.916;6.542;2023-12-14T05:18:42;4.60;99.90
57108;DHT22;42987;52.916;6.542;2023-12-14T05:21:07;4.70;99.90
57108;DHT22;42987;52.916;6.542;2023-12-14T05:23:34;4.70;99.90
57108;DHT22;42987;52.916;6.542;2023-12-14T05:25:59;4.70;99.90
57108;DHT22;42987;52.916;6.542;2023-12-14T05:28:25;4.70;99.90
57108;DHT22;42987;52.916;6.542;2023-12-14T05:30:51;4.60;99.90
57108;DHT22;42987;52.916;6.542;2023-12-14T05:33:17;4.70;99.90
57108;DHT22;42987;52.916;6.542;2023-12-14T05:35:43;4.70;99.90
57108;DHT22;42987;52.916;6.542;2023-12-14T05:38:08;4.70;99.90
57108;DHT22;42987;52.916;6.542;2023-12-14T05:40:34;4.60;99.90
57108;DHT22;42987;52.916;6.542;2023-12-14T05:43:00;4.70;99.90
57108;DHT22;42987;52.916;6.542;2023-12-14T05:45:26;4.70;99.90
57108;DHT22;42987;52.916;6.542;2023-12-14T05:47:52;4.70;99.90
57108;DHT22;42987;52.916;6.542;2023-12-14T05:50:18;4.60;99.90
57108;DHT22;42987;52.916;6.542;2023-12-14T05:52:43;4.70;99.90
57108;DHT22;42987;52.916;6.542;2023-12-14T05:55:11;4.60;99.90
57108;DHT22;42987;52.916;6.542;2023-12-14T05:57:37;4.70;99.90
57108;DHT22;42987;52.916;6.542;2023-12-14T06:00:04;4.70;99.90
57108;DHT22;42987;52.916;6.542;2023-12-14T06:02:31;4.70;99.90
57108;DHT22;42987;52.916;6.542;2023-12-14T06:04:57;4.70;99.90
57108;DHT22;42987;52.916;6.542;2023-12-14T06:07:24;4.70;99.90
57108;DHT22;42987;52.916;6.542;2023-12-14T06:09:50;4.70;99.90
57108;DHT22;42987;52.916;6.542;2023-12-14T06:12:16;4.70;99.90
57108;DHT22;42987;52.916;6.542;2023-12-14T06:14:42;4.60;99.90
57108;DHT22;42987;52.916;6.542;2023-12-14T06:17:07;4.60;99.90
57108;DHT22;42987;52.916;6.542;2023-12-14T06:19:33;4.60;99.90
57108;DHT22;42987;52.916;6.542;2023-12-14T06:21:59;4.70;99.90
57108;DHT22;42987;52.916;6.542;2023-12-14T06:24:24;4.70;99.90
57108;DHT22;42987;52.916;6.542;2023-12-14T06:26:51;4.60;99.90
57108;DHT22;42987;52.916;6.542;2023-12-14T06:29:16;4.60;99.90
57108;DHT22;42987;52.916;6.542;2023-12-14T06:31:43;4.60;99.90
57108;DHT22;42987;52.916;6.542;2023-12-14T06:34:10;4.70;99.90
57108;DHT22;42987;52.916;6.542;2023-12-14T06:36:36;4.60;99.90
57108;DHT22;42987;52.916;6.542;2023-12-14T06:39:06;4.60;99.90
57108;DHT22;42987;52.916;6.542;2023-12-14T06:41:33;4.60;99.90
57108;DHT22;42987;52.916;6.542;2023-12-14T06:43:58;4.60;99.90
57108;DHT22;42987;52.916;6.542;2023-12-14T06:46:24;4.60;99.90
57108;DHT22;42987;52.916;6.542;2023-12-14T06:48:50;4.60;99.90
57108;DHT22;42987;52.916;6.542;2023-12-14T06:51:16;4.60;99.90
57108;DHT22;42987;52.916;6.542;2023-12-14T06:53:43;4.60;99.90
57108;DHT22;42987;52.916;6.542;2023-12-14T06:56:09;4.60;99.90
57108;DHT22;42987;52.916;6.542;2023-12-14T06:58:43;4.60;99.90
57108;DHT22;42987;52.916;6.542;2023-12-14T07:01:14;4.70;99.90
57108;DHT22;42987;52.916;6.542;2023-12-14T07:03:45;4.60;99.90
57108;DHT22;42987;52.916;6.542;2023-12-14T07:06:15;4.60;99.90
57108;DHT22;42987;52.916;6.542;2023-12-14T07:08:41;4.60;99.90
57108;DHT22;42987;52.916;6.542;2023-12-14T07:11:08;4.60;99.90
57108;DHT22;42987;52.916;6.542;2023-12-14T07:13:34;4.60;99.90
57108;DHT22;42987;52.916;6.542;2023-12-14T07:16:07;4.60;99.90
57108;DHT22;42987;52.916;6.542;2023-12-14T07:18:36;4.60;99.90
57108;DHT22;42987;52.916;6.542;2023-12-14T07:21:03;4.60;99.90
57108;DHT22;42987;52.916;6.542;2023-12-14T07:23:29;4.60;99.90
57108;DHT22;42987;52.916;6.542;2023-12-14T07:25:54;4.60;99.90
57108;DHT22;42987;52.916;6.542;2023-12-14T07:28:21;4.60;99.90
57108;DHT22;42987;52.916;6.542;2023-12-14T07:30:47;4.60;99.90
57108;DHT22;42987;52.916;6.542;2023-12-14T07:33:14;4.60;99.90
57108;DHT22;42987;52.916;6.542;2023-12-14T07:35:40;4.60;99.90
57108;DHT22;42987;52.916;6.542;2023-12-14T07:38:05;4.60;99.90
57108;DHT22;42987;52.916;6.542;2023-12-14T07:40:32;4.70;99.90
57108;DHT22;42987;52.916;6.542;2023-12-14T07:42:57;4.70;99.90
57108;DHT22;42987;52.916;6.542;2023-12-14T07:45:23;4.70;99.90
57108;DHT22;42987;52.916;6.542;2023-12-14T07:47:49;4.70;99.90
57108;DHT22;42987;52.916;6.542;2023-12-14T07:50:15;4.70;99.90
57108;DHT22;42987;52.916;6.542;2023-12-14T07:52:41;4.70;99.90
57108;DHT22;42987;52.916;6.542;2023-12-14T07:55:07;4.70;99.90
57108;DHT22;42987;52.916;6.542;2023-12-14T07:57:33;4.70;99.90
57108;DHT22;42987;52.916;6.542;2023-12-14T07:59:59;4.70;99.90
57108;DHT22;42987;52.916;6.542;2023-12-14T08:02:25;4.70;99.90
57108;DHT22;42987;52.916;6.542;2023-12-14T08:04:51;4.70;99.90
57108;DHT22;42987;52.916;6.542;2023-12-14T08:07:18;4.70;99.90
57108;DHT22;42987;52.916;6.542;2023-12-14T08:09:43;4.70;99.90
57108;DHT22;42987;52.916;6.542;2023-12-14T08:12:09;4.70;99.90
57108;DHT22;42987;52.916;6.542;2023-12-14T08:14:35;4.70;99.90
57108;DHT22;42987;52.916;6.542;2023-12-14T08:17:04;4.70;99.90
57108;DHT22;42987;52.916;6.542;2023-12-14T08:19:30;4.80;99.90
57108;DHT22;42987;52.916;6.542;2023-12-14T08:21:56;4.80;99.90
57108;DHT22;42987;52.916;6.542;2023-12-14T08:24:21;4.80;99.90
57108;DHT22;42987;52.916;6.542;2023-12-14T08:26:47;4.80;99.90
57108;DHT22;42987;52.916;6.542;2023-12-14T08:29:13;4.80;99.90
57108;DHT22;42987;52.916;6.542;2023-12-14T08:31:39;4.80;99.90
57108;DHT22;42987;52.916;6.542;2023-12-14T08:34:04;4.80;99.90
57108;DHT22;42987;52.916;6.542;2023-12-14T08:36:30;4.80;99.90
57108;DHT22;42987;52.916;6.542;2023-12-14T08:38:57;4.90;99.90
57108;DHT22;42987;52.916;6.542;2023-12-14T08:41:24;4.90;99.90
57108;DHT22;42987;52.916;6.542;2023-12-14T08:43:49;4.80;99.90
57108;DHT22;42987;52.916;6.542;2023-12-14T08:46:15;4.80;99.90
57108;DHT22;42987;52.916;6.542;2023-12-14T08:48:41;4.90;99.90
57108;DHT22;42987;52.916;6.542;2023-12-14T08:51:07;4.90;99.90
57108;DHT22;42987;52.916;6.542;2023-12-14T08:53:33;4.90;99.90
57108;DHT22;42987;52.916;6.542;2023-12-14T08:55:58;4.90;99.90
57108;DHT22;42987;52.916;6.542;2023-12-14T08:58:24;4.80;99.90
57108;DHT22;42987;52.916;6.542;2023-12-14T09:00:50;4.90;99.90
57108;DHT22;42987;52.916;6.542;2023-12-14T09:03:21;4.90;99.90
57108;DHT22;42987;52.916;6.542;2023-12-14T09:05:47;4.80;99.90
57108;DHT22;42987;52.916;6.542;2023-12-14T09:08:13;4.90;99.90
57108;DHT22;42987;52.916;6.542;2023-12-14T09:10:39;4.90;99.90
57108;DHT22;42987;52.916;6.542;2023-12-14T09:13:05;4.90;99.90
57108;DHT22;42987;52.916;6.542;2023-12-14T09:15:32;4.90;99.90
57108;DHT22;42987;52.916;6.542;2023-12-14T09:17:57;5.00;99.90
57108;DHT22;42987;52.916;6.542;2023-12-14T09:20:23;5.00;99.90
57108;DHT22;42987;52.916;6.542;2023-12-14T09:22:49;5.00;99.90
57108;DHT22;42987;52.916;6.542;2023-12-14T09:25:15;5.00;99.90
57108;DHT22;42987;52.916;6.542;2023-12-14T09:27:41;5.00;99.90
57108;DHT22;42987;52.916;6.542;2023-12-14T09:30:07;5.00;99.90
57108;DHT22;42987;52.916;6.542;2023-12-14T09:32:34;5.10;99.90
57108;DHT22;42987;52.916;6.542;2023-12-14T09:35:00;5.10;99.90
57108;DHT22;42987;52.916;6.542;2023-12-14T09:37:26;5.10;99.90
57108;DHT22;42987;52.916;6.542;2023-12-14T09:39:51;5.10;99.90
57108;DHT22;42987;52.916;6.542;2023-12-14T09:42:19;5.30;99.90
57108;DHT22;42987;52.916;6.542;2023-12-14T09:44:47;5.20;99.90
57108;DHT22;42987;52.916;6.542;2023-12-14T09:47:13;5.20;99.90
57108;DHT22;42987;52.916;6.542;2023-12-14T09:49:41;5.20;99.90
57108;DHT22;42987;52.916;6.542;2023-12-14T09:52:10;5.20;99.90
57108;DHT22;42987;52.916;6.542;2023-12-14T09:54:36;5.30;99.90
57108;DHT22;42987;52.916;6.542;2023-12-14T09:57:02;5.20;99.90
57108;DHT22;42987;52.916;6.542;2023-12-14T09:59:28;5.20;99.90
57108;DHT22;42987;52.916;6.542;2023-12-14T10:02:09;5.20;99.90
57108;DHT22;42987;52.916;6.542;2023-12-14T10:04:35;5.20;99.90
57108;DHT22;42987;52.916;6.542;2023-12-14T10:07:02;5.20;99.90
57108;DHT22;42987;52.916;6.542;2023-12-14T10:09:33;5.20;99.90
57108;DHT22;42987;52.916;6.542;2023-12-14T10:12:07;5.20;99.90
57108;DHT22;42987;52.916;6.542;2023-12-14T10:14:33;5.20;99.90
57108;DHT22;42987;52.916;6.542;2023-12-14T10:19:45;5.30;99.90
57108;DHT22;42987;52.916;6.542;2023-12-14T10:22:14;5.30;99.90
57108;DHT22;42987;52.916;6.542;2023-12-14T10:24:43;5.30;99.90
57108;DHT22;42987;52.916;6.542;2023-12-14T10:27:10;5.40;99.90
57108;DHT22;42987;52.916;6.542;2023-12-14T10:29:40;5.40;99.90
57108;DHT22;42987;52.916;6.542;2023-12-14T10:32:07;5.40;99.90
57108;DHT22;42987;52.916;6.542;2023-12-14T10:34:35;5.40;99.90
57108;DHT22;42987;52.916;6.542;2023-12-14T10:37:05;5.40;99.90
57108;DHT22;42987;52.916;6.542;2023-12-14T10:39:32;5.40;99.90
57108;DHT22;42987;52.916;6.542;2023-12-14T10:42:04;5.50;99.90
57108;DHT22;42987;52.916;6.542;2023-12-14T10:44:36;5.50;99.90
57108;DHT22;42987;52.916;6.542;2023-12-14T10:47:03;5.60;99.90
57108;DHT22;42987;52.916;6.542;2023-12-14T10:49:32;5.50;99.90
57108;DHT22;42987;52.916;6.542;2023-12-14T10:52:00;5.60;99.90
57108;DHT22;42987;52.916;6.542;2023-12-14T10:54:31;5.60;99.90
57108;DHT22;42987;52.916;6.542;2023-12-14T10:57:00;5.60;99.90
57108;DHT22;42987;52.916;6.542;2023-12-14T10:59:26;5.70;99.90
57108;DHT22;42987;52.916;6.542;2023-12-14T11:01:53;5.70;99.90
57108;DHT22;42987;52.916;6.542;2023-12-14T11:04:21;5.70;99.90
57108;DHT22;42987;52.916;6.542;2023-12-14T11:06:47;5.80;99.90
57108;DHT22;42987;52.916;6.542;2023-12-14T11:09:17;5.80;99.90
57108;DHT22;42987;52.916;6.542;2023-12-14T11:11:57;5.80;99.90
57108;DHT22;42987;52.916;6.542;2023-12-14T11:14:28;5.80;99.90
57108;DHT22;42987;52.916;6.542;2023-12-14T11:16:55;5.90;99.90
57108;DHT22;42987;52.916;6.542;2023-12-14T11:24:21;5.90;99.90
57108;DHT22;42987;52.916;6.542;2023-12-14T11:26:51;5.90;99.90
57108;DHT22;42987;52.916;6.542;2023-12-14T11:29:18;5.90;99.90
57108;DHT22;42987;52.916;6.542;2023-12-14T11:31:44;5.90;99.90
57108;DHT22;42987;52.916;6.542;2023-12-14T11:34:11;5.90;99.90
57108;DHT22;42987;52.916;6.542;2023-12-14T11:36:37;6.00;99.90
57108;DHT22;42987;52.916;6.542;2023-12-14T11:39:09;6.00;99.90
57108;DHT22;42987;52.916;6.542;2023-12-14T11:41:35;6.00;99.90
57108;DHT22;42987;52.916;6.542;2023-12-14T11:44:02;6.00;99.90
57108;DHT22;42987;52.916;6.542;2023-12-14T11:46:29;6.00;99.90
57108;DHT22;42987;52.916;6.542;2023-12-14T11:48:56;6.10;99.90
57108;DHT22;42987;52.916;6.542;2023-12-14T11:51:23;6.10;99.90
57108;DHT22;42987;52.916;6.542;2023-12-14T11:53:50;6.10;99.90
57108;DHT22;42987;52.916;6.542;2023-12-14T11:56:19;6.10;99.90
57108;DHT22;42987;52.916;6.542;2023-12-14T11:58:45;6.20;99.90
57108;DHT22;42987;52.916;6.542;2023-12-14T12:01:17;6.10;99.90
57108;DHT22;42987;52.916;6.542;2023-12-14T12:03:45;6.20;99.90
57108;DHT22;42987;52.916;6.542;2023-12-14T12:06:21;6.10;99.90
57108;DHT22;42987;52.916;6.542;2023-12-14T12:08:48;6.20;99.90
57108;DHT22;42987;52.916;6.542;2023-12-14T12:11:21;6.20;99.90
57108;DHT22;42987;52.916;6.542;2023-12-14T12:14:05;6.20;99.90
57108;DHT22;42987;52.916;6.542;2023-12-14T12:16:31;6.10;99.90
57108;DHT22;42987;52.916;6.542;2023-12-14T12:18:57;6.10;99.90
57108;DHT22;42987;52.916;6.542;2023-12-14T12:21:23;6.10;99.90
57108;DHT22;42987;52.916;6.542;2023-12-14T12:23:48;6.20;99.90
57108;DHT22;42987;52.916;6.542;2023-12-14T12:26:14;6.20;99.90
57108;DHT22;42987;52.916;6.542;2023-12-14T12:28:40;6.20;99.90
57108;DHT22;42987;52.916;6.542;2023-12-14T12:31:06;6.20;99.90
57108;DHT22;42987;52.916;6.542;2023-12-14T12:33:32;6.20;99.90
57108;DHT22;42987;52.916;6.542;2023-12-14T12:36:03;6.20;99.90
57108;DHT22;42987;52.916;6.542;2023-12-14T12:38:29;6.20;99.90
57108;DHT22;42987;52.916;6.542;2023-12-14T12:40:54;6.20;99.90
57108;DHT22;42987;52.916;6.542;2023-12-14T12:43:21;6.20;99.90
57108;DHT22;42987;52.916;6.542;2023-12-14T12:45:47;6.10;99.90
57108;DHT22;42987;52.916;6.542;2023-12-14T12:48:12;6.10;99.90
57108;DHT22;42987;52.916;6.542;2023-12-14T12:50:39;6.20;99.90
57108;DHT22;42987;52.916;6.542;2023-12-14T12:53:04;6.20;99.90
57108;DHT22;42987;52.916;6.542;2023-12-14T12:55:30;6.20;99.90
57108;DHT22;42987;52.916;6.542;2023-12-14T12:57:56;6.10;99.90
57108;DHT22;42987;52.916;6.542;2023-12-14T13:00:23;6.20;99.90
57108;DHT22;42987;52.916;6.542;2023-12-14T13:02:49;6.10;99.90
57108;DHT22;42987;52.916;6.542;2023-12-14T13:05:15;6.10;99.90
57108;DHT22;42987;52.916;6.542;2023-12-14T13:07:44;6.10;99.90
57108;DHT22;42987;52.916;6.542;2023-12-14T13:10:10;6.10;99.90
57108;DHT22;42987;52.916;6.542;2023-12-14T13:12:36;6.10;99.90
57108;DHT22;42987;52.916;6.542;2023-12-14T13:15:02;6.10;99.90
57108;DHT22;42987;52.916;6.542;2023-12-14T13:17:28;6.10;99.90
57108;DHT22;42987;52.916;6.542;2023-12-14T13:19:53;6.10;99.90
57108;DHT22;42987;52.916;6.542;2023-12-14T13:22:20;6.10;99.90
57108;DHT22;42987;52.916;6.542;2023-12-14T13:24:46;6.10;99.90
57108;DHT22;42987;52.916;6.542;2023-12-14T13:27:12;6.10;99.90
57108;DHT22;42987;52.916;6.542;2023-12-14T13:29:37;6.10;99.90
57108;DHT22;42987;52.916;6.542;2023-12-14T13:32:03;6.10;99.90
57108;DHT22;42987;52.916;6.542;2023-12-14T13:34:29;6.10;99.90
57108;DHT22;42987;52.916;6.542;2023-12-14T13:36:56;6.10;99.90
57108;DHT22;42987;52.916;6.542;2023-12-14T13:39:22;6.10;99.90
57108;DHT22;42987;52.916;6.542;2023-12-14T13:41:48;6.10;99.90
57108;DHT22;42987;52.916;6.542;2023-12-14T13:44:14;6.10;99.90
57108;DHT22;42987;52.916;6.542;2023-12-14T13:46:40;6.00;99.90
57108;DHT22;42987;52.916;6.542;2023-12-14T13:49:06;6.00;99.90
57108;DHT22;42987;52.916;6.542;2023-12-14T13:51:32;6.00;99.90
57108;DHT22;42987;52.916;6.542;2023-12-14T13:53:57;6.00;99.90
57108;DHT22;42987;52.916;6.542;2023-12-14T13:56:23;6.00;99.90
57108;DHT22;42987;52.916;6.542;2023-12-14T13:58:49;6.00;99.90
57108;DHT22;42987;52.916;6.542;2023-12-14T14:01:15;6.00;99.90
57108;DHT22;42987;52.916;6.542;2023-12-14T14:03:42;6.00;99.90
57108;DHT22;42987;52.916;6.542;2023-12-14T14:06:08;6.00;99.90
57108;DHT22;42987;52.916;6.542;2023-12-14T14:08:34;5.90;99.90
57108;DHT22;42987;52.916;6.542;2023-12-14T14:11:01;5.90;99.90
57108;DHT22;42987;52.916;6.542;2023-12-14T14:13:27;5.90;99.90
57108;DHT22;42987;52.916;6.542;2023-12-14T14:15:53;5.90;99.90
57108;DHT22;42987;52.916;6.542;2023-12-14T14:18:20;5.90;99.90
57108;DHT22;42987;52.916;6.542;2023-12-14T14:20:46;5.90;99.90
57108;DHT22;42987;52.916;6.542;2023-12-14T14:23:17;5.90;99.90
57108;DHT22;42987;52.916;6.542;2023-12-14T14:25:43;5.80;99.90
57108;DHT22;42987;52.916;6.542;2023-12-14T14:28:10;5.80;99.90
57108;DHT22;42987;52.916;6.542;2023-12-14T14:30:36;5.80;99.90
57108;DHT22;42987;52.916;6.542;2023-12-14T14:33:01;5.80;99.90
57108;DHT22;42987;52.916;6.542;2023-12-14T14:35:27;5.70;99.90
57108;DHT22;42987;52.916;6.542;2023-12-14T14:37:54;5.80;99.90
57108;DHT22;42987;52.916;6.542;2023-12-14T14:40:20;5.80;99.90
57108;DHT22;42987;52.916;6.542;2023-12-14T14:42:48;5.80;99.90
57108;DHT22;42987;52.916;6.542;2023-12-14T14:45:14;5.80;99.90
57108;DHT22;42987;52.916;6.542;2023-12-14T14:47:41;5.80;99.90
57108;DHT22;42987;52.916;6.542;2023-12-14T14:50:10;5.80;99.90
57108;DHT22;42987;52.916;6.542;2023-12-14T14:52:36;5.80;99.90
57108;DHT22;42987;52.916;6.542;2023-12-14T14:55:02;5.80;99.90
57108;DHT22;42987;52.916;6.542;2023-12-14T14:57:28;5.80;99.90
57108;DHT22;42987;52.916;6.542;2023-12-14T14:59:53;5.80;99.90
57108;DHT22;42987;52.916;6.542;2023-12-14T15:02:19;5.80;99.90
57108;DHT22;42987;52.916;6.542;2023-12-14T15:04:45;5.80;99.90
57108;DHT22;42987;52.916;6.542;2023-12-14T15:07:11;5.80;99.90
57108;DHT22;42987;52.916;6.542;2023-12-14T15:09:36;5.80;99.90
57108;DHT22;42987;52.916;6.542;2023-12-14T15:12:02;5.70;99.90
57108;DHT22;42987;52.916;6.542;2023-12-14T15:14:28;5.70;99.90
57108;DHT22;42987;52.916;6.542;2023-12-14T15:16:54;5.70;99.90
57108;DHT22;42987;52.916;6.542;2023-12-14T15:19:20;5.70;99.90
57108;DHT22;42987;52.916;6.542;2023-12-14T15:21:46;5.70;99.90
57108;DHT22;42987;52.916;6.542;2023-12-14T15:24:11;5.70;99.90
57108;DHT22;42987;52.916;6.542;2023-12-14T15:26:37;5.70;99.90
57108;DHT22;42987;52.916;6.542;2023-12-14T15:29:03;5.60;99.90
57108;DHT22;42987;52.916;6.542;2023-12-14T15:31:29;5.70;99.90
57108;DHT22;42987;52.916;6.542;2023-12-14T15:33:56;5.60;99.90
57108;DHT22;42987;52.916;6.542;2023-12-14T15:36:22;5.60;99.90
57108;DHT22;42987;52.916;6.542;2023-12-14T15:38:48;5.70;99.90
57108;DHT22;42987;52.916;6.542;2023-12-14T15:41:14;5.70;99.90
57108;DHT22;42987;52.916;6.542;2023-12-14T15:43:41;5.70;99.90
57108;DHT22;42987;52.916;6.542;2023-12-14T15:46:07;5.70;99.90
57108;DHT22;42987;52.916;6.542;2023-12-14T15:48:33;5.60;99.90
57108;DHT22;42987;52.916;6.542;2023-12-14T15:50:59;5.60;99.90